sensor_id;sensor_type;location;lat;lon;timestamp;P1;durP1;ratioP1;P2;durP2;ratioP2
10465;SDS011;5280;42.600;23.556;2023-04-24T00:01:55;3.23;;;2.97;;
10465;SDS011;5280;42.600;23.556;2023-04-24T00:04:25;3.63;;;2.90;;
10465;SDS011;5280;42.600;23.556;2023-04-24T00:06:52;4.40;;;2.60;;
10465;SDS011;5280;42.600;23.556;2023-04-24T00:09:22;2.80;;;2.60;;
10465;SDS011;5280;42.600;23.556;2023-04-24T00:11:50;3.60;;;3.30;;
10465;SDS011;5280;42.600;23.556;2023-04-24T00:14:17;3.63;;;2.80;;
10465;SDS011;5280;42.600;23.556;2023-04-24T00:16:47;3.50;;;3.20;;
10465;SDS011;5280;42.600;23.556;2023-04-24T00:19:14;3.50;;;3.03;;
10465;SDS011;5280;42.600;23.556;2023-04-24T00:21:41;3.73;;;3.43;;
10465;SDS011;5280;42.600;23.556;2023-04-24T00:24:08;4.17;;;3.13;;
10465;SDS011;5280;42.600;23.556;2023-04-24T00:26:37;4.50;;;2.83;;
10465;SDS011;5280;42.600;23.556;2023-04-24T00:29:05;3.93;;;2.90;;
10465;SDS011;5280;42.600;23.556;2023-04-24T00:31:32;3.60;;;3.30;;
10465;SDS011;5280;42.600;23.556;2023-04-24T00:33:59;3.60;;;3.20;;
10465;SDS011;5280;42.600;23.556;2023-04-24T00:36:27;3.00;;;2.70;;
10465;SDS011;5280;42.600;23.556;2023-04-24T00:38:56;4.30;;;2.80;;
10465;SDS011;5280;42.600;23.556;2023-04-24T00:41:23;3.90;;;3.50;;
10465;SDS011;5280;42.600;23.556;2023-04-24T00:43:50;3.00;;;2.80;;
10465;SDS011;5280;42.600;23.556;2023-04-24T00:46:19;3.53;;;3.00;;
10465;SDS011;5280;42.600;23.556;2023-04-24T00:48:47;3.47;;;3.20;;
10465;SDS011;5280;42.600;23.556;2023-04-24T00:51:14;5.03;;;3.40;;
10465;SDS011;5280;42.600;23.556;2023-04-24T00:53:40;3.67;;;3.37;;
10465;SDS011;5280;42.600;23.556;2023-04-24T00:56:07;6.57;;;3.70;;
10465;SDS011;5280;42.600;23.556;2023-04-24T00:58:34;4.07;;;3.60;;
10465;SDS011;5280;42.600;23.556;2023-04-24T01:01:01;6.13;;;3.70;;
10465;SDS011;5280;42.600;23.556;2023-04-24T01:03:33;4.17;;;3.30;;
10465;SDS011;5280;42.600;23.556;2023-04-24T01:06:02;4.27;;;3.53;;
10465;SDS011;5280;42.600;23.556;2023-04-24T01:08:30;6.77;;;3.77;;
10465;SDS011;5280;42.600;23.556;2023-04-24T01:10:57;4.83;;;3.70;;
10465;SDS011;5280;42.600;23.556;2023-04-24T01:13:24;5.40;;;3.90;;
10465;SDS011;5280;42.600;23.556;2023-04-24T01:15:51;5.70;;;3.20;;
10465;SDS011;5280;42.600;23.556;2023-04-24T01:18:17;4.43;;;3.97;;
10465;SDS011;5280;42.600;23.556;2023-04-24T01:20:47;6.77;;;4.33;;
10465;SDS011;5280;42.600;23.556;2023-04-24T01:23:18;4.40;;;3.77;;
10465;SDS011;5280;42.600;23.556;2023-04-24T01:25:45;6.37;;;4.17;;
10465;SDS011;5280;42.600;23.556;2023-04-24T01:28:12;4.33;;;3.93;;
10465;SDS011;5280;42.600;23.556;2023-04-24T01:30:40;4.30;;;3.90;;
10465;SDS011;5280;42.600;23.556;2023-04-24T01:33:07;5.93;;;4.00;;
10465;SDS011;5280;42.600;23.556;2023-04-24T01:35:35;4.57;;;4.03;;
10465;SDS011;5280;42.600;23.556;2023-04-24T01:38:02;4.80;;;4.00;;
10465;SDS011;5280;42.600;23.556;2023-04-24T01:40:31;5.40;;;3.97;;
10465;SDS011;5280;42.600;23.556;2023-04-24T01:42:58;4.63;;;4.07;;
10465;SDS011;5280;42.600;23.556;2023-04-24T01:45:25;4.27;;;3.70;;
10465;SDS011;5280;42.600;23.556;2023-04-24T01:47:52;4.67;;;3.83;;
10465;SDS011;5280;42.600;23.556;2023-04-24T01:50:19;5.33;;;4.10;;
10465;SDS011;5280;42.600;23.556;2023-04-24T01:52:45;5.63;;;4.00;;
10465;SDS011;5280;42.600;23.556;2023-04-24T01:55:12;4.27;;;3.80;;
10465;SDS011;5280;42.600;23.556;2023-04-24T01:57:40;4.43;;;4.03;;
10465;SDS011;5280;42.600;23.556;2023-04-24T02:00:08;4.93;;;3.90;;
10465;SDS011;5280;42.600;23.556;2023-04-24T02:02:39;4.60;;;3.97;;
10465;SDS011;5280;42.600;23.556;2023-04-24T02:05:06;4.83;;;3.97;;
10465;SDS011;5280;42.600;23.556;2023-04-24T02:07:34;5.97;;;3.87;;
10465;SDS011;5280;42.600;23.556;2023-04-24T02:10:01;4.03;;;3.70;;
10465;SDS011;5280;42.600;23.556;2023-04-24T02:12:29;4.83;;;3.90;;
10465;SDS011;5280;42.600;23.556;2023-04-24T02:14:57;5.70;;;3.83;;
10465;SDS011;5280;42.600;23.556;2023-04-24T02:17:24;3.93;;;3.63;;
10465;SDS011;5280;42.600;23.556;2023-04-24T02:19:51;4.80;;;3.87;;
10465;SDS011;5280;42.600;23.556;2023-04-24T02:22:17;4.93;;;4.17;;
10465;SDS011;5280;42.600;23.556;2023-04-24T02:24:44;4.10;;;3.80;;
10465;SDS011;5280;42.600;23.556;2023-04-24T02:27:11;5.33;;;3.80;;
10465;SDS011;5280;42.600;23.556;2023-04-24T02:29:38;5.50;;;3.93;;
10465;SDS011;5280;42.600;23.556;2023-04-24T02:32:06;5.10;;;4.20;;
10465;SDS011;5280;42.600;23.556;2023-04-24T02:34:36;4.40;;;4.00;;
10465;SDS011;5280;42.600;23.556;2023-04-24T02:37:03;5.00;;;3.73;;
10465;SDS011;5280;42.600;23.556;2023-04-24T02:39:30;4.80;;;4.07;;
10465;SDS011;5280;42.600;23.556;2023-04-24T02:41:57;4.70;;;3.80;;
10465;SDS011;5280;42.600;23.556;2023-04-24T02:44:23;6.87;;;4.53;;
10465;SDS011;5280;42.600;23.556;2023-04-24T02:46:50;4.70;;;4.20;;
10465;SDS011;5280;42.600;23.556;2023-04-24T02:49:18;5.50;;;4.07;;
10465;SDS011;5280;42.600;23.556;2023-04-24T02:51:45;4.90;;;3.97;;
10465;SDS011;5280;42.600;23.556;2023-04-24T02:54:17;7.83;;;4.67;;
10465;SDS011;5280;42.600;23.556;2023-04-24T02:56:44;6.20;;;4.43;;
10465;SDS011;5280;42.600;23.556;2023-04-24T02:59:11;4.37;;;3.97;;
10465;SDS011;5280;42.600;23.556;2023-04-24T03:01:37;4.93;;;3.87;;
10465;SDS011;5280;42.600;23.556;2023-04-24T03:04:04;4.70;;;4.30;;
10465;SDS011;5280;42.600;23.556;2023-04-24T03:06:32;4.27;;;3.87;;
10465;SDS011;5280;42.600;23.556;2023-04-24T03:09:00;5.10;;;4.30;;
10465;SDS011;5280;42.600;23.556;2023-04-24T03:11:28;4.40;;;3.77;;
10465;SDS011;5280;42.600;23.556;2023-04-24T03:13:55;4.70;;;3.90;;
10465;SDS011;5280;42.600;23.556;2023-04-24T03:16:21;4.47;;;4.07;;
10465;SDS011;5280;42.600;23.556;2023-04-24T03:18:48;4.70;;;4.30;;
10465;SDS011;5280;42.600;23.556;2023-04-24T03:21:15;4.93;;;4.53;;
10465;SDS011;5280;42.600;23.556;2023-04-24T03:23:43;5.53;;;4.10;;
10465;SDS011;5280;42.600;23.556;2023-04-24T03:26:10;5.87;;;4.70;;
10465;SDS011;5280;42.600;23.556;2023-04-24T03:28:36;4.83;;;4.33;;
10465;SDS011;5280;42.600;23.556;2023-04-24T03:31:03;4.70;;;4.10;;
10465;SDS011;5280;42.600;23.556;2023-04-24T03:33:30;9.67;;;5.00;;
10465;SDS011;5280;42.600;23.556;2023-04-24T03:35:56;4.80;;;4.20;;
10465;SDS011;5280;42.600;23.556;2023-04-24T03:38:23;4.57;;;4.17;;
10465;SDS011;5280;42.600;23.556;2023-04-24T03:40:51;5.00;;;4.50;;
10465;SDS011;5280;42.600;23.556;2023-04-24T03:43:18;4.77;;;4.37;;
10465;SDS011;5280;42.600;23.556;2023-04-24T03:45:45;4.90;;;4.40;;
10465;SDS011;5280;42.600;23.556;2023-04-24T03:48:11;4.70;;;4.30;;
10465;SDS011;5280;42.600;23.556;2023-04-24T03:50:38;5.67;;;5.10;;
10465;SDS011;5280;42.600;23.556;2023-04-24T03:53:05;5.07;;;4.67;;
10465;SDS011;5280;42.600;23.556;2023-04-24T03:55:33;10.03;;;5.13;;
10465;SDS011;5280;42.600;23.556;2023-04-24T03:58:01;5.03;;;4.50;;
10465;SDS011;5280;42.600;23.556;2023-04-24T04:00:28;4.97;;;4.57;;
10465;SDS011;5280;42.600;23.556;2023-04-24T04:02:58;6.00;;;4.47;;
10465;SDS011;5280;42.600;23.556;2023-04-24T04:05:25;6.00;;;5.23;;
10465;SDS011;5280;42.600;23.556;2023-04-24T04:07:51;6.23;;;5.03;;
10465;SDS011;5280;42.600;23.556;2023-04-24T04:10:18;5.83;;;5.30;;
10465;SDS011;5280;42.600;23.556;2023-04-24T04:12:46;6.23;;;5.27;;
10465;SDS011;5280;42.600;23.556;2023-04-24T04:15:14;5.70;;;5.20;;
10465;SDS011;5280;42.600;23.556;2023-04-24T04:17:41;5.40;;;4.90;;
10465;SDS011;5280;42.600;23.556;2023-04-24T04:20:08;5.13;;;4.70;;
10465;SDS011;5280;42.600;23.556;2023-04-24T04:22:35;5.33;;;4.83;;
10465;SDS011;5280;42.600;23.556;2023-04-24T04:25:02;7.30;;;5.40;;
10465;SDS011;5280;42.600;23.556;2023-04-24T04:27:30;6.17;;;5.57;;
10465;SDS011;5280;42.600;23.556;2023-04-24T04:29:58;5.53;;;5.00;;
10465;SDS011;5280;42.600;23.556;2023-04-24T04:32:27;5.80;;;4.87;;
10465;SDS011;5280;42.600;23.556;2023-04-24T04:34:54;6.17;;;5.23;;
10465;SDS011;5280;42.600;23.556;2023-04-24T04:37:21;6.47;;;5.10;;
10465;SDS011;5280;42.600;23.556;2023-04-24T04:39:47;10.40;;;5.23;;
10465;SDS011;5280;42.600;23.556;2023-04-24T04:42:14;9.10;;;5.70;;
10465;SDS011;5280;42.600;23.556;2023-04-24T04:44:41;7.83;;;5.20;;
10465;SDS011;5280;42.600;23.556;2023-04-24T04:47:08;5.73;;;5.23;;
10465;SDS011;5280;42.600;23.556;2023-04-24T04:49:37;9.70;;;5.53;;
10465;SDS011;5280;42.600;23.556;2023-04-24T04:52:04;7.23;;;5.20;;
10465;SDS011;5280;42.600;23.556;2023-04-24T04:54:31;12.87;;;6.10;;
10465;SDS011;5280;42.600;23.556;2023-04-24T04:56:57;5.97;;;5.37;;
10465;SDS011;5280;42.600;23.556;2023-04-24T04:59:25;6.70;;;6.10;;
10465;SDS011;5280;42.600;23.556;2023-04-24T05:01:52;7.03;;;6.33;;
10465;SDS011;5280;42.600;23.556;2023-04-24T05:04:21;7.90;;;6.00;;
10465;SDS011;5280;42.600;23.556;2023-04-24T05:06:49;11.00;;;6.40;;
10465;SDS011;5280;42.600;23.556;2023-04-24T05:09:20;6.70;;;6.10;;
10465;SDS011;5280;42.600;23.556;2023-04-24T05:11:47;7.00;;;6.23;;
10465;SDS011;5280;42.600;23.556;2023-04-24T05:14:13;8.50;;;6.27;;
10465;SDS011;5280;42.600;23.556;2023-04-24T05:16:40;8.60;;;6.40;;
10465;SDS011;5280;42.600;23.556;2023-04-24T05:19:07;8.17;;;6.87;;
10465;SDS011;5280;42.600;23.556;2023-04-24T05:21:34;7.23;;;6.63;;
10465;SDS011;5280;42.600;23.556;2023-04-24T05:24:02;8.30;;;6.00;;
10465;SDS011;5280;42.600;23.556;2023-04-24T05:26:29;8.13;;;7.03;;
10465;SDS011;5280;42.600;23.556;2023-04-24T05:28:56;8.33;;;7.17;;
10465;SDS011;5280;42.600;23.556;2023-04-24T05:31:26;9.20;;;7.60;;
10465;SDS011;5280;42.600;23.556;2023-04-24T05:33:53;8.10;;;7.40;;
10465;SDS011;5280;42.600;23.556;2023-04-24T05:36:19;9.67;;;7.43;;
10465;SDS011;5280;42.600;23.556;2023-04-24T05:38:46;9.00;;;7.37;;
10465;SDS011;5280;42.600;23.556;2023-04-24T05:41:14;8.30;;;6.97;;
10465;SDS011;5280;42.600;23.556;2023-04-24T05:43:41;8.87;;;7.37;;
10465;SDS011;5280;42.600;23.556;2023-04-24T05:46:08;11.20;;;7.50;;
10465;SDS011;5280;42.600;23.556;2023-04-24T05:48:34;8.67;;;7.60;;
10465;SDS011;5280;42.600;23.556;2023-04-24T05:51:01;8.50;;;6.97;;
10465;SDS011;5280;42.600;23.556;2023-04-24T05:53:28;8.80;;;6.40;;
10465;SDS011;5280;42.600;23.556;2023-04-24T05:55:54;10.10;;;6.47;;
10465;SDS011;5280;42.600;23.556;2023-04-24T05:58:23;6.47;;;5.87;;
10465;SDS011;5280;42.600;23.556;2023-04-24T06:00:49;6.27;;;5.70;;
10465;SDS011;5280;42.600;23.556;2023-04-24T06:03:17;7.17;;;6.17;;
10465;SDS011;5280;42.600;23.556;2023-04-24T06:05:43;6.63;;;5.97;;
10465;SDS011;5280;42.600;23.556;2023-04-24T06:08:10;8.07;;;5.47;;
10465;SDS011;5280;42.600;23.556;2023-04-24T06:10:37;5.70;;;5.20;;
10465;SDS011;5280;42.600;23.556;2023-04-24T06:13:04;11.27;;;6.37;;
10465;SDS011;5280;42.600;23.556;2023-04-24T06:15:33;6.40;;;5.60;;
10465;SDS011;5280;42.600;23.556;2023-04-24T06:17:59;8.50;;;5.87;;
10465;SDS011;5280;42.600;23.556;2023-04-24T06:20:26;7.27;;;6.67;;
10465;SDS011;5280;42.600;23.556;2023-04-24T06:22:59;6.60;;;6.00;;
10465;SDS011;5280;42.600;23.556;2023-04-24T06:25:26;6.57;;;6.03;;
10465;SDS011;5280;42.600;23.556;2023-04-24T06:27:53;6.47;;;5.87;;
10465;SDS011;5280;42.600;23.556;2023-04-24T06:30:20;9.53;;;6.03;;
10465;SDS011;5280;42.600;23.556;2023-04-24T06:32:48;13.77;;;5.80;;
10465;SDS011;5280;42.600;23.556;2023-04-24T06:35:15;7.40;;;5.67;;
10465;SDS011;5280;42.600;23.556;2023-04-24T06:37:42;6.20;;;5.60;;
10465;SDS011;5280;42.600;23.556;2023-04-24T06:40:09;6.03;;;5.30;;
10465;SDS011;5280;42.600;23.556;2023-04-24T06:42:36;7.03;;;5.53;;
10465;SDS011;5280;42.600;23.556;2023-04-24T06:45:04;6.37;;;4.83;;
10465;SDS011;5280;42.600;23.556;2023-04-24T06:47:31;7.10;;;6.37;;
10465;SDS011;5280;42.600;23.556;2023-04-24T06:50:01;7.70;;;5.87;;
10465;SDS011;5280;42.600;23.556;2023-04-24T06:52:28;8.27;;;5.87;;
10465;SDS011;5280;42.600;23.556;2023-04-24T06:54:59;5.77;;;5.20;;
10465;SDS011;5280;42.600;23.556;2023-04-24T06:57:27;7.97;;;5.67;;
10465;SDS011;5280;42.600;23.556;2023-04-24T06:59:56;5.97;;;5.37;;
10465;SDS011;5280;42.600;23.556;2023-04-24T07:02:24;6.27;;;5.53;;
10465;SDS011;5280;42.600;23.556;2023-04-24T07:04:51;7.40;;;5.30;;
10465;SDS011;5280;42.600;23.556;2023-04-24T07:07:19;6.23;;;5.63;;
10465;SDS011;5280;42.600;23.556;2023-04-24T07:09:46;6.83;;;5.87;;
10465;SDS011;5280;42.600;23.556;2023-04-24T07:12:13;7.03;;;5.50;;
10465;SDS011;5280;42.600;23.556;2023-04-24T07:14:42;5.87;;;5.27;;
10465;SDS011;5280;42.600;23.556;2023-04-24T07:17:08;8.20;;;5.70;;
10465;SDS011;5280;42.600;23.556;2023-04-24T07:19:38;6.67;;;5.70;;
10465;SDS011;5280;42.600;23.556;2023-04-24T07:22:04;6.23;;;5.60;;
10465;SDS011;5280;42.600;23.556;2023-04-24T07:24:33;6.77;;;5.87;;
10465;SDS011;5280;42.600;23.556;2023-04-24T07:26:59;5.87;;;5.27;;
10465;SDS011;5280;42.600;23.556;2023-04-24T07:29:27;6.20;;;5.50;;
10465;SDS011;5280;42.600;23.556;2023-04-24T07:31:54;6.17;;;5.40;;
10465;SDS011;5280;42.600;23.556;2023-04-24T07:34:21;7.07;;;5.00;;
10465;SDS011;5280;42.600;23.556;2023-04-24T07:36:48;6.23;;;5.30;;
10465;SDS011;5280;42.600;23.556;2023-04-24T07:39:15;7.07;;;5.47;;
10465;SDS011;5280;42.600;23.556;2023-04-24T07:41:43;6.27;;;5.63;;
10465;SDS011;5280;42.600;23.556;2023-04-24T07:44:10;6.10;;;5.27;;
10465;SDS011;5280;42.600;23.556;2023-04-24T07:46:37;7.73;;;5.50;;
10465;SDS011;5280;42.600;23.556;2023-04-24T07:49:03;8.20;;;5.57;;
10465;SDS011;5280;42.600;23.556;2023-04-24T07:51:30;7.30;;;5.63;;
10465;SDS011;5280;42.600;23.556;2023-04-24T07:53:58;6.60;;;5.37;;
10465;SDS011;5280;42.600;23.556;2023-04-24T07:56:25;5.37;;;4.97;;
10465;SDS011;5280;42.600;23.556;2023-04-24T07:58:53;5.17;;;4.73;;
10465;SDS011;5280;42.600;23.556;2023-04-24T08:01:20;6.67;;;4.80;;
10465;SDS011;5280;42.600;23.556;2023-04-24T08:03:47;5.53;;;5.03;;
10465;SDS011;5280;42.600;23.556;2023-04-24T08:06:14;8.00;;;4.53;;
10465;SDS011;5280;42.600;23.556;2023-04-24T08:08:41;4.73;;;4.27;;
10465;SDS011;5280;42.600;23.556;2023-04-24T08:11:07;4.80;;;4.37;;
10465;SDS011;5280;42.600;23.556;2023-04-24T08:13:34;5.17;;;4.00;;
10465;SDS011;5280;42.600;23.556;2023-04-24T08:16:02;5.33;;;3.83;;
10465;SDS011;5280;42.600;23.556;2023-04-24T08:18:29;5.33;;;4.83;;
10465;SDS011;5280;42.600;23.556;2023-04-24T08:20:56;5.20;;;4.43;;
10465;SDS011;5280;42.600;23.556;2023-04-24T08:23:26;4.30;;;3.73;;
10465;SDS011;5280;42.600;23.556;2023-04-24T08:25:53;5.50;;;4.87;;
10465;SDS011;5280;42.600;23.556;2023-04-24T08:28:20;4.73;;;4.07;;
10465;SDS011;5280;42.600;23.556;2023-04-24T08:30:48;4.90;;;4.40;;
10465;SDS011;5280;42.600;23.556;2023-04-24T08:33:21;5.40;;;4.90;;
10465;SDS011;5280;42.600;23.556;2023-04-24T08:35:49;4.83;;;4.37;;
10465;SDS011;5280;42.600;23.556;2023-04-24T08:38:16;4.77;;;4.37;;
10465;SDS011;5280;42.600;23.556;2023-04-24T08:40:42;5.17;;;4.60;;
10465;SDS011;5280;42.600;23.556;2023-04-24T08:43:11;4.27;;;3.87;;
10465;SDS011;5280;42.600;23.556;2023-04-24T08:45:38;5.57;;;4.40;;
10465;SDS011;5280;42.600;23.556;2023-04-24T08:48:06;6.53;;;4.63;;
10465;SDS011;5280;42.600;23.556;2023-04-24T08:50:35;6.27;;;4.10;;
10465;SDS011;5280;42.600;23.556;2023-04-24T08:53:03;6.43;;;4.67;;
10465;SDS011;5280;42.600;23.556;2023-04-24T08:55:31;4.70;;;3.90;;
10465;SDS011;5280;42.600;23.556;2023-04-24T08:57:59;4.10;;;3.57;;
10465;SDS011;5280;42.600;23.556;2023-04-24T09:00:28;4.50;;;4.10;;
10465;SDS011;5280;42.600;23.556;2023-04-24T09:02:55;4.27;;;3.87;;
10465;SDS011;5280;42.600;23.556;2023-04-24T09:05:23;6.00;;;3.80;;
10465;SDS011;5280;42.600;23.556;2023-04-24T09:07:53;4.47;;;3.83;;
10465;SDS011;5280;42.600;23.556;2023-04-24T09:10:21;4.30;;;3.90;;
10465;SDS011;5280;42.600;23.556;2023-04-24T09:12:50;8.53;;;4.03;;
10465;SDS011;5280;42.600;23.556;2023-04-24T09:15:17;5.03;;;3.53;;
10465;SDS011;5280;42.600;23.556;2023-04-24T09:17:45;4.30;;;3.90;;
10465;SDS011;5280;42.600;23.556;2023-04-24T09:20:12;4.37;;;4.03;;
10465;SDS011;5280;42.600;23.556;2023-04-24T09:22:39;4.03;;;3.60;;
10465;SDS011;5280;42.600;23.556;2023-04-24T09:25:07;5.13;;;3.60;;
10465;SDS011;5280;42.600;23.556;2023-04-24T09:27:38;5.33;;;3.70;;
10465;SDS011;5280;42.600;23.556;2023-04-24T09:30:09;3.60;;;3.30;;
10465;SDS011;5280;42.600;23.556;2023-04-24T09:32:36;4.70;;;3.67;;
10465;SDS011;5280;42.600;23.556;2023-04-24T09:35:07;4.20;;;3.70;;
10465;SDS011;5280;42.600;23.556;2023-04-24T09:37:36;5.00;;;3.90;;
10465;SDS011;5280;42.600;23.556;2023-04-24T09:40:17;4.60;;;3.53;;
10465;SDS011;5280;42.600;23.556;2023-04-24T09:42:46;6.20;;;3.53;;
10465;SDS011;5280;42.600;23.556;2023-04-24T09:45:17;4.37;;;3.97;;
10465;SDS011;5280;42.600;23.556;2023-04-24T09:47:51;4.30;;;3.90;;
10465;SDS011;5280;42.600;23.556;2023-04-24T09:50:18;4.37;;;3.77;;
10465;SDS011;5280;42.600;23.556;2023-04-24T09:52:46;5.33;;;4.07;;
10465;SDS011;5280;42.600;23.556;2023-04-24T09:55:24;4.20;;;3.87;;
10465;SDS011;5280;42.600;23.556;2023-04-24T09:57:57;17.13;;;8.57;;
10465;SDS011;5280;42.600;23.556;2023-04-24T10:00:30;8.10;;;4.90;;
10465;SDS011;5280;42.600;23.556;2023-04-24T10:02:59;4.83;;;3.57;;
10465;SDS011;5280;42.600;23.556;2023-04-24T10:05:30;4.07;;;3.73;;
10465;SDS011;5280;42.600;23.556;2023-04-24T10:08:01;4.73;;;3.60;;
10465;SDS011;5280;42.600;23.556;2023-04-24T10:10:34;4.03;;;3.50;;
10465;SDS011;5280;42.600;23.556;2023-04-24T10:13:03;3.97;;;3.40;;
10465;SDS011;5280;42.600;23.556;2023-04-24T10:15:31;6.70;;;3.67;;
10465;SDS011;5280;42.600;23.556;2023-04-24T10:17:59;5.07;;;3.43;;
10465;SDS011;5280;42.600;23.556;2023-04-24T10:20:26;4.30;;;3.60;;
10465;SDS011;5280;42.600;23.556;2023-04-24T10:22:55;4.20;;;3.50;;
10465;SDS011;5280;42.600;23.556;2023-04-24T10:25:27;4.00;;;3.70;;
10465;SDS011;5280;42.600;23.556;2023-04-24T10:27:58;4.00;;;3.50;;
10465;SDS011;5280;42.600;23.556;2023-04-24T10:30:26;4.53;;;3.87;;
10465;SDS011;5280;42.600;23.556;2023-04-24T10:32:54;5.33;;;3.70;;
10465;SDS011;5280;42.600;23.556;2023-04-24T10:35:21;3.73;;;3.23;;
10465;SDS011;5280;42.600;23.556;2023-04-24T10:37:56;5.47;;;3.83;;
10465;SDS011;5280;42.600;23.556;2023-04-24T10:40:26;3.97;;;3.27;;
10465;SDS011;5280;42.600;23.556;2023-04-24T10:42:55;3.60;;;3.30;;
10465;SDS011;5280;42.600;23.556;2023-04-24T10:45:24;3.80;;;3.37;;
10465;SDS011;5280;42.600;23.556;2023-04-24T10:47:52;3.80;;;3.50;;
10465;SDS011;5280;42.600;23.556;2023-04-24T10:50:29;3.67;;;3.37;;
10465;SDS011;5280;42.600;23.556;2023-04-24T10:53:12;3.97;;;3.00;;
10465;SDS011;5280;42.600;23.556;2023-04-24T10:55:44;3.30;;;3.10;;
10465;SDS011;5280;42.600;23.556;2023-04-24T10:58:14;5.27;;;3.50;;
10465;SDS011;5280;42.600;23.556;2023-04-24T11:00:42;3.23;;;3.03;;
10465;SDS011;5280;42.600;23.556;2023-04-24T11:03:22;3.60;;;3.30;;
10465;SDS011;5280;42.600;23.556;2023-04-24T11:05:51;4.37;;;3.13;;
10465;SDS011;5280;42.600;23.556;2023-04-24T11:08:21;4.47;;;3.37;;
10465;SDS011;5280;42.600;23.556;2023-04-24T11:11:00;4.07;;;3.23;;
10465;SDS011;5280;42.600;23.556;2023-04-24T11:16:42;4.10;;;3.80;;
10465;SDS011;5280;42.600;23.556;2023-04-24T11:19:17;3.60;;;3.30;;
10465;SDS011;5280;42.600;23.556;2023-04-24T11:21:46;3.50;;;3.13;;
10465;SDS011;5280;42.600;23.556;2023-04-24T11:27:12;3.10;;;2.90;;
10465;SDS011;5280;42.600;23.556;2023-04-24T11:29:43;4.67;;;3.27;;
10465;SDS011;5280;42.600;23.556;2023-04-24T11:32:25;4.00;;;3.23;;
10465;SDS011;5280;42.600;23.556;2023-04-24T11:34:54;4.10;;;3.30;;
10465;SDS011;5280;42.600;23.556;2023-04-24T11:37:22;3.17;;;2.90;;
10465;SDS011;5280;42.600;23.556;2023-04-24T11:39:51;3.43;;;3.00;;
10465;SDS011;5280;42.600;23.556;2023-04-24T11:42:18;3.10;;;2.90;;
10465;SDS011;5280;42.600;23.556;2023-04-24T11:44:49;3.67;;;2.93;;
10465;SDS011;5280;42.600;23.556;2023-04-24T11:47:16;3.47;;;3.17;;
10465;SDS011;5280;42.600;23.556;2023-04-24T11:49:43;3.27;;;2.97;;
10465;SDS011;5280;42.600;23.556;2023-04-24T11:52:10;4.70;;;2.97;;
10465;SDS011;5280;42.600;23.556;2023-04-24T11:54:37;4.50;;;2.93;;
10465;SDS011;5280;42.600;23.556;2023-04-24T11:57:04;20.87;;;6.07;;
10465;SDS011;5280;42.600;23.556;2023-04-24T11:59:35;8.57;;;4.97;;
10465;SDS011;5280;42.600;23.556;2023-04-24T12:02:04;9.53;;;4.87;;
10465;SDS011;5280;42.600;23.556;2023-04-24T12:04:38;18.03;;;5.43;;
10465;SDS011;5280;42.600;23.556;2023-04-24T12:07:06;9.47;;;5.10;;
10465;SDS011;5280;42.600;23.556;2023-04-24T12:09:43;5.00;;;4.40;;
10465;SDS011;5280;42.600;23.556;2023-04-24T12:12:10;8.50;;;5.30;;
10465;SDS011;5280;42.600;23.556;2023-04-24T12:14:51;8.30;;;6.17;;
10465;SDS011;5280;42.600;23.556;2023-04-24T12:17:27;6.00;;;5.50;;
10465;SDS011;5280;42.600;23.556;2023-04-24T12:19:58;6.67;;;6.03;;
10465;SDS011;5280;42.600;23.556;2023-04-24T12:22:27;6.27;;;5.77;;
10465;SDS011;5280;42.600;23.556;2023-04-24T12:25:01;7.03;;;6.10;;
10465;SDS011;5280;42.600;23.556;2023-04-24T12:27:30;5.10;;;4.70;;
10465;SDS011;5280;42.600;23.556;2023-04-24T12:29:58;5.90;;;5.40;;
10465;SDS011;5280;42.600;23.556;2023-04-24T12:32:27;5.40;;;4.90;;
10465;SDS011;5280;42.600;23.556;2023-04-24T12:34:54;5.33;;;4.77;;
10465;SDS011;5280;42.600;23.556;2023-04-24T12:37:22;4.80;;;4.50;;
10465;SDS011;5280;42.600;23.556;2023-04-24T12:39:58;5.47;;;5.07;;
10465;SDS011;5280;42.600;23.556;2023-04-24T12:42:26;5.27;;;4.90;;
10465;SDS011;5280;42.600;23.556;2023-04-24T12:44:56;5.27;;;4.80;;
10465;SDS011;5280;42.600;23.556;2023-04-24T12:47:24;5.53;;;5.13;;
10465;SDS011;5280;42.600;23.556;2023-04-24T12:49:52;5.00;;;4.70;;
10465;SDS011;5280;42.600;23.556;2023-04-24T12:52:20;5.63;;;5.13;;
10465;SDS011;5280;42.600;23.556;2023-04-24T12:54:47;5.43;;;5.13;;
10465;SDS011;5280;42.600;23.556;2023-04-24T12:57:14;5.07;;;4.73;;
10465;SDS011;5280;42.600;23.556;2023-04-24T12:59:40;4.37;;;4.07;;
10465;SDS011;5280;42.600;23.556;2023-04-24T13:02:07;4.17;;;3.93;;
10465;SDS011;5280;42.600;23.556;2023-04-24T13:04:35;4.07;;;3.77;;
10465;SDS011;5280;42.600;23.556;2023-04-24T13:07:03;4.60;;;4.17;;
10465;SDS011;5280;42.600;23.556;2023-04-24T13:09:31;4.93;;;4.40;;
10465;SDS011;5280;42.600;23.556;2023-04-24T13:11:58;5.73;;;4.80;;
10465;SDS011;5280;42.600;23.556;2023-04-24T13:14:26;4.47;;;4.17;;
10465;SDS011;5280;42.600;23.556;2023-04-24T13:16:52;5.93;;;5.33;;
10465;SDS011;5280;42.600;23.556;2023-04-24T13:19:19;4.60;;;4.30;;
10465;SDS011;5280;42.600;23.556;2023-04-24T13:21:46;5.10;;;4.60;;
10465;SDS011;5280;42.600;23.556;2023-04-24T13:24:14;4.70;;;4.37;;
10465;SDS011;5280;42.600;23.556;2023-04-24T13:26:41;4.30;;;4.00;;
10465;SDS011;5280;42.600;23.556;2023-04-24T13:29:07;5.07;;;4.70;;
10465;SDS011;5280;42.600;23.556;2023-04-24T13:31:34;6.47;;;4.90;;
10465;SDS011;5280;42.600;23.556;2023-04-24T13:34:01;5.80;;;5.20;;
10465;SDS011;5280;42.600;23.556;2023-04-24T13:36:28;5.57;;;5.07;;
10465;SDS011;5280;42.600;23.556;2023-04-24T13:38:56;5.70;;;5.20;;
10465;SDS011;5280;42.600;23.556;2023-04-24T13:41:24;5.50;;;5.10;;
10465;SDS011;5280;42.600;23.556;2023-04-24T13:43:51;6.60;;;6.00;;
10465;SDS011;5280;42.600;23.556;2023-04-24T13:46:18;6.60;;;6.03;;
10465;SDS011;5280;42.600;23.556;2023-04-24T13:48:45;6.43;;;5.93;;
10465;SDS011;5280;42.600;23.556;2023-04-24T13:51:11;5.37;;;5.00;;
10465;SDS011;5280;42.600;23.556;2023-04-24T13:53:38;7.07;;;4.97;;
10465;SDS011;5280;42.600;23.556;2023-04-24T13:56:05;5.13;;;4.80;;
10465;SDS011;5280;42.600;23.556;2023-04-24T13:58:34;5.90;;;5.40;;
10465;SDS011;5280;42.600;23.556;2023-04-24T14:01:01;5.80;;;5.30;;
10465;SDS011;5280;42.600;23.556;2023-04-24T14:03:28;5.40;;;4.90;;
10465;SDS011;5280;42.600;23.556;2023-04-24T14:05:55;5.10;;;4.73;;
10465;SDS011;5280;42.600;23.556;2023-04-24T14:08:22;5.13;;;4.23;;
10465;SDS011;5280;42.600;23.556;2023-04-24T14:10:50;5.07;;;4.57;;
10465;SDS011;5280;42.600;23.556;2023-04-24T14:13:17;4.70;;;4.13;;
10465;SDS011;5280;42.600;23.556;2023-04-24T14:15:45;4.27;;;3.93;;
10465;SDS011;5280;42.600;23.556;2023-04-24T14:18:12;4.40;;;4.00;;
10465;SDS011;5280;42.600;23.556;2023-04-24T14:20:39;4.17;;;3.47;;
10465;SDS011;5280;42.600;23.556;2023-04-24T14:23:06;7.53;;;4.37;;
10465;SDS011;5280;42.600;23.556;2023-04-24T14:25:33;4.00;;;3.70;;
10465;SDS011;5280;42.600;23.556;2023-04-24T14:28:00;3.90;;;3.60;;
10465;SDS011;5280;42.600;23.556;2023-04-24T14:30:27;4.43;;;4.03;;
10465;SDS011;5280;42.600;23.556;2023-04-24T14:32:55;4.20;;;3.80;;
10465;SDS011;5280;42.600;23.556;2023-04-24T14:35:22;4.97;;;3.97;;
10465;SDS011;5280;42.600;23.556;2023-04-24T14:37:48;6.23;;;3.47;;
10465;SDS011;5280;42.600;23.556;2023-04-24T14:40:16;3.90;;;3.60;;
10465;SDS011;5280;42.600;23.556;2023-04-24T14:42:42;5.57;;;3.60;;
10465;SDS011;5280;42.600;23.556;2023-04-24T14:45:09;3.60;;;3.40;;
10465;SDS011;5280;42.600;23.556;2023-04-24T14:47:36;4.00;;;3.10;;
10465;SDS011;5280;42.600;23.556;2023-04-24T14:50:05;4.60;;;4.20;;
10465;SDS011;5280;42.600;23.556;2023-04-24T14:52:34;4.13;;;3.83;;
10465;SDS011;5280;42.600;23.556;2023-04-24T14:55:01;4.17;;;3.67;;
10465;SDS011;5280;42.600;23.556;2023-04-24T14:57:28;4.40;;;4.07;;
10465;SDS011;5280;42.600;23.556;2023-04-24T14:59:54;4.80;;;4.40;;